Time;durP1;ratioP1;P1;durP2;ratioP2;P2;SDS_P1;SDS_P2;PMS_P1;PMS_P2;Temp;Humidity;BMP_temperature;BMP_pressure;BME280_temperature;BME280_humidity;BME280_pressure;Samples;Min_cycle;Max_cycle;Signal;HPM_P1;HPM_P2
2021/06/13 00:01:23;;;;;;;10.07;2.38;;;12.30;99.90;;;;;;5025514;28;20112;-69
2021/06/13 00:03:49;;;;;;;3.40;1.58;;;12.30;99.90;;;;;;5024891;28;20029;-70
2021/06/13 00:06:15;;;;;;;5.85;2.15;;;12.20;99.90;;;;;;5025137;28;20038;-71
2021/06/13 00:08:41;;;;;;;9.00;2.08;;;12.20;99.90;;;;;;5025190;28;20072;-68
2021/06/13 00:11:07;;;;;;;8.63;2.22;;;12.10;99.90;;;;;;5026774;28;20026;-70
2021/06/13 00:13:33;;;;;;;4.90;1.85;;;12.10;99.90;;;;;;5043605;28;20433;-70
2021/06/13 00:15:58;;;;;;;2.88;2.00;;;12.10;99.90;;;;;;5045082;28;20025;-74
2021/06/13 00:18:24;;;;;;;4.15;2.17;;;12.00;99.90;;;;;;5044635;28;20037;-72
2021/06/13 00:20:51;;;;;;;3.70;1.95;;;12.00;99.90;;;;;;5044693;28;20083;-69
2021/06/13 00:23:17;;;;;;;9.75;2.97;;;11.90;99.90;;;;;;5044673;28;20029;-70
2021/06/13 00:25:43;;;;;;;9.18;2.03;;;11.90;99.90;;;;;;5044627;28;20048;-70
2021/06/13 00:28:09;;;;;;;5.18;2.22;;;11.90;99.90;;;;;;5044843;28;20448;-71
2021/06/13 00:30:35;;;;;;;11.00;2.30;;;11.90;99.90;;;;;;5044797;28;20036;-69
2021/06/13 00:33:00;;;;;;;9.18;2.47;;;11.80;99.90;;;;;;5044723;28;20078;-68
2021/06/13 00:35:26;;;;;;;9.25;2.55;;;11.80;99.90;;;;;;5044749;28;20036;-70
2021/06/13 00:37:52;;;;;;;4.90;2.30;;;11.80;99.90;;;;;;5044464;28;20030;-69
2021/06/13 00:40:20;;;;;;;5.75;1.90;;;11.70;99.90;;;;;;5044345;28;20402;-69
2021/06/13 00:42:46;;;;;;;8.63;2.95;;;11.70;99.90;;;;;;5044767;28;20026;-69
2021/06/13 00:45:13;;;;;;;5.10;2.40;;;11.70;99.90;;;;;;5044556;28;20021;-70
2021/06/13 00:47:39;;;;;;;6.10;2.50;;;11.70;99.90;;;;;;5044452;28;20084;-69
2021/06/13 00:50:28;;;;;;;9.95;2.13;;;11.60;99.90;;;;;;5044441;28;20025;-71
2021/06/13 00:52:54;;;;;;;10.73;2.35;;;11.60;99.90;;;;;;5029817;28;20050;-69
2021/06/13 00:55:20;;;;;;;3.50;1.48;;;11.60;99.90;;;;;;5028706;28;20033;-70
2021/06/13 00:57:46;;;;;;;5.13;2.20;;;11.60;99.90;;;;;;5028870;28;20053;-69
2021/06/13 01:00:13;;;;;;;3.53;1.63;;;11.60;99.90;;;;;;5028334;28;20033;-70
2021/06/13 01:02:38;;;;;;;6.53;2.10;;;11.60;99.90;;;;;;5028755;28;20033;-70
2021/06/13 01:05:06;;;;;;;3.92;1.88;;;11.50;99.90;;;;;;5028613;28;20034;-69
2021/06/13 01:07:39;;;;;;;6.90;2.50;;;11.50;99.90;;;;;;5028197;28;20041;-70
2021/06/13 01:10:22;;;;;;;7.88;2.00;;;11.50;99.90;;;;;;5028537;28;20062;-69
2021/06/13 01:12:55;;;;;;;5.15;2.05;;;11.50;99.90;;;;;;5028377;28;20025;-70
2021/06/13 01:15:26;;;;;;;8.77;2.85;;;11.50;99.90;;;;;;5028122;28;20494;-70
2021/06/13 01:18:22;;;;;;;12.35;2.75;;;11.50;99.90;;;;;;5028516;28;20040;-70
2021/06/13 01:20:59;;;;;;;4.07;2.08;;;11.50;99.90;;;;;;5028390;28;20026;-70
2021/06/13 01:23:37;;;;;;;5.25;1.98;;;11.50;99.90;;;;;;5027882;28;20053;-69
2021/06/13 01:26:14;;;;;;;9.90;2.60;;;11.50;99.90;;;;;;5028267;28;20038;-71
2021/06/13 01:28:58;;;;;;;10.52;2.83;;;11.50;99.90;;;;;;5028015;28;20390;-69
2021/06/13 01:31:30;;;;;;;;;;;11.50;99.90;;;;;;5028582;28;20057;-69
2021/06/13 01:33:59;;;;;;;7.28;3.05;;;11.50;99.90;;;;;;5028115;28;20499;-70
2021/06/13 01:36:25;;;;;;;12.75;2.88;;;11.50;99.90;;;;;;5027701;28;20026;-70
2021/06/13 01:38:51;;;;;;;4.97;2.08;;;11.50;99.90;;;;;;5027963;28;20026;-70
2021/06/13 01:41:22;;;;;;;4.85;2.53;;;11.50;99.90;;;;;;5027953;28;20045;-71
2021/06/13 01:43:51;;;;;;;7.43;2.08;;;11.50;99.90;;;;;;5027584;28;20029;-70
2021/06/13 01:46:18;;;;;;;5.05;1.95;;;11.40;99.90;;;;;;5027537;28;20041;-69
2021/06/13 01:48:46;;;;;;;4.47;2.20;;;11.40;99.90;;;;;;5027787;28;20497;-70
2021/06/13 01:51:12;;;;;;;14.68;2.33;;;11.40;99.90;;;;;;5027097;28;20048;-72
2021/06/13 01:53:44;;;;;;;8.02;2.50;;;11.40;99.90;;;;;;5027464;28;20054;-71
2021/06/13 01:56:16;;;;;;;7.85;2.17;;;11.30;99.90;;;;;;5027710;28;20041;-71
2021/06/13 01:58:46;;;;;;;6.72;2.50;;;11.30;99.90;;;;;;5027476;28;20030;-74
2021/06/13 02:01:14;;;;;;;6.97;1.85;;;11.30;99.90;;;;;;5026290;28;20026;-71
2021/06/13 02:03:48;;;;;;;7.57;2.30;;;11.30;99.90;;;;;;5027116;28;20033;-71
2021/06/13 02:06:16;;;;;;;9.75;2.75;;;11.30;99.90;;;;;;5027129;28;20053;-70
2021/06/13 02:08:44;;;;;;;6.93;2.75;;;11.20;99.90;;;;;;5026005;28;20094;-70
2021/06/13 02:11:11;;;;;;;4.53;2.28;;;11.30;99.90;;;;;;5027279;28;20033;-71
2021/06/13 02:13:41;;;;;;;11.40;2.30;;;11.20;99.90;;;;;;5027453;28;20049;-72
2021/06/13 02:16:09;;;;;;;7.40;2.58;;;11.20;99.90;;;;;;5027462;28;20036;-76
2021/06/13 02:18:36;;;;;;;4.72;2.38;;;11.20;99.90;;;;;;5027048;28;20032;-69
2021/06/13 02:21:07;;;;;;;6.07;2.53;;;11.20;99.90;;;;;;5027432;28;20170;-73
2021/06/13 02:23:34;;;;;;;5.57;2.08;;;11.20;99.90;;;;;;5027160;28;20043;-71
2021/06/13 02:26:00;;;;;;;4.43;1.85;;;11.20;99.90;;;;;;5026702;28;20045;-70
2021/06/13 02:28:32;;;;;;;8.73;2.75;;;11.30;99.90;;;;;;5027103;28;20030;-70
2021/06/13 02:31:01;;;;;;;3.80;1.73;;;11.20;99.90;;;;;;5025819;28;20029;-70
2021/06/13 02:33:28;;;;;;;11.85;2.95;;;11.20;99.90;;;;;;5026857;28;20021;-70
2021/06/13 02:35:54;;;;;;;7.95;2.22;;;11.20;99.90;;;;;;5026967;28;20061;-69
2021/06/13 02:38:20;;;;;;;4.85;2.47;;;11.20;99.90;;;;;;5026506;28;20030;-69
2021/06/13 02:40:47;;;;;;;8.13;2.50;;;11.20;99.90;;;;;;5025304;28;20394;-70
2021/06/13 02:43:13;;;;;;;15.18;2.38;;;11.10;99.90;;;;;;5026629;28;20387;-70
2021/06/13 02:45:39;;;;;;;11.43;3.33;;;11.10;99.90;;;;;;5026433;28;20041;-70
2021/06/13 02:48:06;;;;;;;14.40;2.13;;;11.10;99.90;;;;;;5026610;28;20038;-71
2021/06/13 02:50:33;;;;;;;4.35;1.80;;;11.10;99.90;;;;;;5026775;28;20061;-70
2021/06/13 02:53:13;;;;;;;4.15;1.92;;;11.10;99.90;;;;;;5026085;28;20109;-70
2021/06/13 02:55:50;;;;;;;9.80;2.30;;;11.10;99.90;;;;;;5026345;28;20044;-71
2021/06/13 02:58:41;;;;;;;6.40;2.33;;;11.10;99.90;;;;;;5026487;28;20041;-70
2021/06/13 03:01:09;;;;;;;7.80;2.38;;;11.10;99.90;;;;;;5026208;28;20042;-70
2021/06/13 03:03:36;;;;;;;20.80;2.78;;;11.00;99.90;;;;;;5026433;28;20022;-70
2021/06/13 03:06:09;;;;;;;5.40;2.15;;;11.00;99.90;;;;;;5026577;28;20038;-72
2021/06/13 03:08:35;;;;;;;7.07;2.33;;;11.00;99.90;;;;;;5026087;28;20025;-70
2021/06/13 03:11:01;;;;;;;3.80;1.92;;;11.00;99.90;;;;;;5026597;28;20470;-70
2021/06/13 03:13:28;;;;;;;5.03;1.95;;;11.00;99.90;;;;;;5026060;28;20030;-70
2021/06/13 03:15:54;;;;;;;5.85;1.80;;;11.00;99.90;;;;;;5023964;28;20514;-70
2021/06/13 03:18:22;;;;;;;5.40;2.17;;;11.00;99.90;;;;;;5026197;28;20076;-69
2021/06/13 03:20:49;;;;;;;4.88;2.38;;;11.00;99.90;;;;;;5026139;28;20030;-72
2021/06/13 03:23:17;;;;;;;16.60;2.95;;;11.00;99.90;;;;;;5025889;28;20029;-71
2021/06/13 03:25:43;;;;;;;6.82;2.00;;;11.00;99.90;;;;;;5025936;28;20037;-72
2021/06/13 03:28:09;;;;;;;4.82;1.83;;;11.00;99.90;;;;;;5026029;28;20038;-70
2021/06/13 03:30:36;;;;;;;13.77;1.92;;;11.00;99.90;;;;;;5025734;28;20048;-71
2021/06/13 03:33:04;;;;;;;8.45;2.90;;;11.00;99.90;;;;;;5026042;28;20033;-71
2021/06/13 03:35:30;;;;;;;4.22;2.20;;;11.00;99.90;;;;;;5025858;28;20034;-71
2021/06/13 03:37:57;;;;;;;6.35;1.88;;;11.00;99.90;;;;;;5025442;28;20037;-71
2021/06/13 03:40:23;;;;;;;6.90;1.77;;;11.10;99.90;;;;;;5025942;28;20034;-70
2021/06/13 03:42:49;;;;;;;10.02;2.75;;;11.10;99.90;;;;;;5025448;28;20022;-69
2021/06/13 03:45:15;;;;;;;4.00;1.65;;;11.10;99.90;;;;;;5025546;28;20495;-70
2021/06/13 03:47:42;;;;;;;6.57;1.80;;;11.10;99.90;;;;;;5025518;28;20042;-71
2021/06/13 03:50:10;;;;;;;9.10;2.08;;;11.10;99.90;;;;;;5025136;28;20025;-71
2021/06/13 03:52:37;;;;;;;6.22;2.17;;;11.10;99.90;;;;;;5025167;28;20046;-72
2021/06/13 03:55:03;;;;;;;4.22;1.83;;;11.10;99.90;;;;;;5025643;28;20026;-71
2021/06/13 03:57:30;;;;;;;16.48;2.92;;;11.10;99.90;;;;;;5040489;28;20022;-70
2021/06/13 03:59:58;;;;;;;6.35;2.30;;;11.20;99.90;;;;;;5024053;28;20057;-71
2021/06/13 04:02:24;;;;;;;5.35;2.30;;;11.10;99.90;;;;;;5025203;28;20036;-70
2021/06/13 04:04:53;;;;;;;6.03;2.92;;;11.10;99.90;;;;;;5024975;28;20025;-70
2021/06/13 04:07:19;;;;;;;4.60;2.25;;;11.20;99.90;;;;;;5025112;28;20547;-70
2021/06/13 04:09:46;;;;;;;3.90;2.28;;;11.20;99.90;;;;;;5024982;28;20068;-70
2021/06/13 04:12:22;;;;;;;2.55;1.70;;;11.20;99.90;;;;;;5025035;28;20030;-70
2021/06/13 04:14:48;;;;;;;4.93;1.88;;;11.20;99.90;;;;;;5025306;28;20030;-70
2021/06/13 04:17:18;;;;;;;7.03;2.33;;;11.30;99.90;;;;;;5025053;28;20033;-71
2021/06/13 04:19:47;;;;;;;3.17;1.73;;;11.30;99.90;;;;;;5025083;28;20107;-70
2021/06/13 04:22:15;;;;;;;4.97;2.22;;;11.30;99.90;;;;;;5025115;28;20022;-71
2021/06/13 04:24:41;;;;;;;6.60;2.30;;;11.30;99.90;;;;;;5024704;28;20033;-72
2021/06/13 04:27:09;;;;;;;9.93;1.92;;;11.30;99.90;;;;;;5023940;28;20038;-70
2021/06/13 04:29:35;;;;;;;8.38;2.47;;;11.30;99.90;;;;;;5025303;28;20397;-71
2021/06/13 04:32:00;;;;;;;6.43;2.67;;;11.40;99.90;;;;;;5025042;28;20053;-70
2021/06/13 04:34:26;;;;;;;7.28;1.70;;;11.40;99.90;;;;;;5024699;28;20094;-71
2021/06/13 04:36:51;;;;;;;9.80;2.60;;;11.40;99.90;;;;;;5024945;28;20026;-71
2021/06/13 04:39:17;;;;;;;5.85;2.15;;;11.50;99.90;;;;;;5024444;28;20026;-70
2021/06/13 04:41:42;;;;;;;3.42;1.73;;;11.60;99.90;;;;;;5024850;28;20026;-71
2021/06/13 04:44:08;;;;;;;4.20;2.55;;;11.60;99.90;;;;;;5024781;28;20026;-70
2021/06/13 04:46:34;;;;;;;6.03;2.13;;;11.60;99.90;;;;;;5024522;28;20042;-71
2021/06/13 04:48:59;;;;;;;8.32;2.05;;;11.70;99.90;;;;;;5025028;28;20044;-71
2021/06/13 04:51:26;;;;;;;11.23;1.77;;;11.70;99.90;;;;;;5024753;28;20377;-71
2021/06/13 04:54:25;;;;;;;8.50;2.15;;;11.70;99.90;;;;;;5024136;28;20050;-70
2021/06/13 04:56:59;;;;;;;6.15;2.40;;;11.90;99.90;;;;;;5039912;28;20052;-72
2021/06/13 04:59:24;;;;;;;3.50;1.75;;;11.90;99.90;;;;;;5023336;28;20049;-72
2021/06/13 05:01:50;;;;;;;6.18;2.38;;;12.00;99.90;;;;;;5024377;28;20434;-69
2021/06/13 05:04:16;;;;;;;5.45;1.90;;;12.10;99.90;;;;;;5024638;28;20037;-70
2021/06/13 05:06:43;;;;;;;4.97;1.90;;;12.10;99.90;;;;;;5024551;28;20049;-72
2021/06/13 05:09:09;;;;;;;4.88;1.95;;;12.10;99.90;;;;;;5023034;28;20038;-71
2021/06/13 05:11:34;;;;;;;5.07;1.70;;;12.20;99.90;;;;;;5023324;28;20080;-72
2021/06/13 05:14:00;;;;;;;7.38;1.92;;;12.20;99.90;;;;;;5024584;28;20430;-71
2021/06/13 05:16:26;;;;;;;22.17;3.30;;;12.20;99.90;;;;;;5023071;28;20025;-71
2021/06/13 05:18:51;;;;;;;10.98;2.08;;;12.20;99.90;;;;;;5024458;28;20029;-71
2021/06/13 05:21:17;;;;;;;10.98;2.55;;;12.30;99.90;;;;;;5022961;28;20022;-72
2021/06/13 05:23:42;;;;;;;5.55;2.65;;;12.30;99.90;;;;;;5023164;28;20026;-69
2021/06/13 05:26:08;;;;;;;17.65;2.33;;;12.40;99.90;;;;;;5024764;28;20128;-71
2021/06/13 05:28:34;;;;;;;8.07;1.98;;;12.40;99.90;;;;;;5024192;28;20105;-70
2021/06/13 05:30:59;;;;;;;3.20;1.88;;;12.40;99.90;;;;;;5024243;28;20034;-71
2021/06/13 05:33:25;;;;;;;11.38;1.90;;;12.50;99.90;;;;;;5024293;28;20034;-69
2021/06/13 05:35:51;;;;;;;6.55;2.60;;;12.50;99.90;;;;;;5024025;28;20120;-70
2021/06/13 05:38:18;;;;;;;3.28;1.83;;;12.60;99.90;;;;;;5025153;28;20030;-71
2021/06/13 05:40:44;;;;;;;7.15;1.90;;;12.70;99.90;;;;;;5030503;28;20041;-72
2021/06/13 05:43:11;;;;;;;6.70;2.03;;;12.70;99.90;;;;;;5034039;28;20048;-70
2021/06/13 05:45:38;;;;;;;5.53;1.98;;;12.80;99.90;;;;;;5037342;28;20029;-70
2021/06/13 05:48:04;;;;;;;3.08;1.48;;;12.80;99.90;;;;;;5038246;28;20022;-70
2021/06/13 05:50:30;;;;;;;10.57;3.08;;;12.90;99.90;;;;;;5040185;28;20505;-70
2021/06/13 05:52:56;;;;;;;11.07;2.55;;;12.90;99.90;;;;;;5030390;28;20056;-70
2021/06/13 05:55:22;;;;;;;9.27;3.10;;;13.00;99.90;;;;;;5038476;28;20025;-71
2021/06/13 05:57:49;;;;;;;8.63;2.55;;;13.10;99.90;;;;;;5028589;28;20021;-69
2021/06/13 06:00:25;;;;;;;8.55;1.77;;;13.10;99.90;;;;;;5041779;28;20025;-70
2021/06/13 06:02:51;;;;;;;8.50;2.88;;;13.20;99.90;;;;;;5045826;28;20036;-71
2021/06/13 06:05:18;;;;;;;3.97;1.95;;;13.30;99.90;;;;;;5043500;28;20033;-69
2021/06/13 06:07:44;;;;;;;7.47;1.73;;;13.40;99.90;;;;;;5045932;28;20048;-71
2021/06/13 06:10:11;;;;;;;3.15;1.38;;;13.40;99.90;;;;;;5025560;28;20116;-70
2021/06/13 06:12:37;;;;;;;3.33;1.77;;;13.40;99.90;;;;;;5027345;28;20022;-72
2021/06/13 06:15:08;;;;;;;5.15;1.83;;;13.50;99.90;;;;;;5027531;28;20095;-72
2021/06/13 06:17:34;;;;;;;15.23;2.55;;;13.60;99.90;;;;;;5025764;28;20030;-71
2021/06/13 06:20:05;;;;;;;8.93;2.47;;;13.70;99.90;;;;;;5026821;28;20022;-70
2021/06/13 06:22:31;;;;;;;6.15;2.20;;;13.70;99.90;;;;;;5027344;28;20516;-72
2021/06/13 06:24:56;;;;;;;3.78;1.30;;;13.80;99.90;;;;;;5026481;28;20026;-69
2021/06/13 06:27:22;;;;;;;5.05;2.53;;;13.80;99.90;;;;;;5038648;28;20037;-71
2021/06/13 06:29:48;;;;;;;2.75;1.73;;;13.90;99.90;;;;;;5037133;28;20029;-70
2021/06/13 06:32:14;;;;;;;3.53;1.83;;;13.90;99.90;;;;;;5037100;28;20105;-71
2021/06/13 06:34:39;;;;;;;5.10;2.08;;;14.00;99.90;;;;;;5026888;28;20046;-72
2021/06/13 06:37:05;;;;;;;4.75;1.63;;;14.10;99.90;;;;;;5026795;28;20030;-71
2021/06/13 06:39:31;;;;;;;2.63;1.58;;;14.10;99.90;;;;;;5026890;28;20032;-70
2021/06/13 06:41:57;;;;;;;10.15;2.92;;;14.20;99.90;;;;;;5026813;28;20037;-69
2021/06/13 06:44:24;;;;;;;2.55;1.40;;;14.30;99.90;;;;;;5026748;28;20029;-73
2021/06/13 06:46:49;;;;;;;4.97;1.85;;;14.30;99.90;;;;;;5026271;28;20037;-72
2021/06/13 06:49:15;;;;;;;3.00;1.92;;;14.40;99.90;;;;;;5025911;28;20072;-73
2021/06/13 06:51:41;;;;;;;4.50;1.83;;;14.40;99.90;;;;;;5025614;28;20383;-75
2021/06/13 06:54:06;;;;;;;5.82;1.80;;;14.50;99.90;;;;;;5025736;28;20050;-71
2021/06/13 06:56:32;;;;;;;3.20;1.45;;;14.50;99.90;;;;;;5026773;28;20096;-71
2021/06/13 06:58:58;;;;;;;2.60;1.67;;;14.60;99.90;;;;;;5026538;28;20501;-71
2021/06/13 07:01:24;;;;;;;7.13;2.25;;;14.60;99.90;;;;;;5027096;28;20386;-71
2021/06/13 07:03:50;;;;;;;7.05;1.67;;;14.70;99.90;;;;;;5032154;28;20029;-69
2021/06/13 07:06:16;;;;;;;6.70;2.55;;;14.70;99.90;;;;;;5025726;28;20091;-71
2021/06/13 07:08:41;;;;;;;6.97;2.35;;;14.70;99.90;;;;;;5041344;28;20026;-73
2021/06/13 07:11:07;;;;;;;6.88;2.05;;;14.80;99.90;;;;;;5026333;28;20022;-71
2021/06/13 07:13:34;;;;;;;5.07;2.28;;;14.90;99.90;;;;;;5036561;28;20025;-72
2021/06/13 07:16:00;;;;;;;8.38;2.40;;;15.00;99.90;;;;;;5046226;28;20056;-69
2021/06/13 07:18:26;;;;;;;5.38;1.50;;;15.00;99.90;;;;;;5045987;28;20085;-75
2021/06/13 07:20:53;;;;;;;6.80;1.23;;;15.10;99.90;;;;;;5045382;28;20025;-70
2021/06/13 07:23:19;;;;;;;4.28;1.63;;;15.10;99.90;;;;;;5039992;28;20558;-71
2021/06/13 07:25:45;;;;;;;2.78;1.05;;;15.20;99.90;;;;;;5058275;28;20056;-73
2021/06/13 07:28:10;;;;;;;6.13;1.40;;;15.30;99.90;;;;;;5043825;28;20033;-71
2021/06/13 07:30:36;;;;;;;2.03;1.30;;;15.40;99.90;;;;;;5026076;28;20378;-72
2021/06/13 07:33:03;;;;;;;7.70;1.92;;;15.50;99.90;;;;;;5027562;28;20030;-71
2021/06/13 07:35:29;;;;;;;3.90;1.60;;;15.60;99.90;;;;;;5045806;28;20027;-71
2021/06/13 07:37:54;;;;;;;3.83;1.08;;;15.70;99.90;;;;;;5045381;28;20092;-70
2021/06/13 07:40:21;;;;;;;3.83;1.92;;;15.60;99.90;;;;;;5045121;28;20037;-73
2021/06/13 07:42:48;;;;;;;4.18;1.88;;;15.70;99.90;;;;;;5045491;28;20018;-71
2021/06/13 07:45:14;;;;;;;5.30;1.15;;;15.90;99.90;;;;;;5045277;28;20036;-69
2021/06/13 07:47:40;;;;;;;7.97;1.02;;;15.90;99.90;;;;;;5044879;28;20063;-70
2021/06/13 07:50:09;;;;;;;1.63;1.08;;;16.00;99.90;;;;;;5045379;28;20036;-71
2021/06/13 07:52:36;;;;;;;6.82;2.35;;;16.10;99.90;;;;;;5044944;28;20046;-73
2021/06/13 07:55:04;;;;;;;3.78;1.55;;;16.20;99.90;;;;;;5045359;28;20072;-71
2021/06/13 07:57:29;;;;;;;2.20;1.00;;;16.20;99.90;;;;;;5045334;28;20098;-71
2021/06/13 07:59:55;;;;;;;2.20;1.20;;;16.30;99.90;;;;;;5044439;28;20033;-73
2021/06/13 08:02:20;;;;;;;5.90;1.27;;;16.40;99.90;;;;;;5036508;28;20029;-70
2021/06/13 08:05:07;;;;;;;2.33;1.33;;;16.50;99.90;;;;;;5033782;28;20029;-71
2021/06/13 08:07:32;;;;;;;3.08;1.17;;;16.60;99.90;;;;;;5024868;28;20041;-73
2021/06/13 08:09:58;;;;;;;3.22;1.73;;;16.60;99.90;;;;;;5022373;28;20030;-69
2021/06/13 08:12:23;;;;;;;6.55;1.50;;;16.70;99.90;;;;;;5024340;28;20089;-69
2021/06/13 08:14:49;;;;;;;2.47;1.10;;;16.80;99.90;;;;;;5024565;28;20027;-68
2021/06/13 08:17:15;;;;;;;3.80;1.20;;;16.80;99.90;;;;;;5024781;28;20026;-70
2021/06/13 08:19:41;;;;;;;3.53;1.48;;;16.80;99.90;;;;;;5024570;28;20034;-71
2021/06/13 08:22:06;;;;;;;2.38;1.25;;;17.00;99.90;;;;;;5024517;28;20490;-73
2021/06/13 08:24:33;;;;;;;1.98;1.23;;;17.00;99.90;;;;;;5024700;28;20050;-72
2021/06/13 08:26:58;;;;;;;2.08;1.38;;;17.00;99.90;;;;;;5024452;28;20034;-68
2021/06/13 08:29:24;;;;;;;11.80;1.45;;;17.00;99.90;;;;;;5024402;28;20022;-69
2021/06/13 08:31:50;;;;;;;1.83;1.27;;;16.80;99.90;;;;;;5041472;28;20037;-70
2021/06/13 08:34:15;;;;;;;1.95;1.25;;;16.80;99.90;;;;;;5033758;28;20022;-68
2021/06/13 08:36:41;;;;;;;12.30;1.42;;;16.90;99.90;;;;;;5024633;28;20112;-69
2021/06/13 08:39:07;;;;;;;4.93;1.45;;;17.00;99.90;;;;;;5033811;28;20026;-69
2021/06/13 08:41:33;;;;;;;6.85;1.50;;;17.10;99.90;;;;;;5029610;28;20508;-71
2021/06/13 08:44:00;;;;;;;7.40;1.92;;;17.30;99.90;;;;;;5043710;28;20462;-69
2021/06/13 08:46:26;;;;;;;2.53;1.27;;;17.50;99.90;;;;;;5044585;28;20034;-72
2021/06/13 08:48:51;;;;;;;4.07;1.40;;;17.50;99.90;;;;;;5032567;28;20037;-69
2021/06/13 08:51:18;;;;;;;5.32;1.35;;;17.40;99.90;;;;;;5028029;28;20021;-70
2021/06/13 08:53:44;;;;;;;3.05;1.67;;;17.50;99.90;;;;;;5042458;28;20056;-67
2021/06/13 08:56:14;;;;;;;3.90;1.92;;;17.70;99.90;;;;;;5037001;28;20026;-68
2021/06/13 08:58:41;;;;;;;5.78;1.48;;;17.70;99.90;;;;;;5044762;28;20530;-71
2021/06/13 09:01:07;;;;;;;2.90;1.48;;;17.70;99.90;;;;;;5035868;28;20037;-71
2021/06/13 09:03:34;;;;;;;6.95;2.22;;;17.80;99.90;;;;;;5024039;28;20187;-70
2021/06/13 09:05:59;;;;;;;5.45;1.38;;;17.80;99.90;;;;;;5032621;28;20033;-71
2021/06/13 09:08:47;;;;;;;1.92;1.30;;;18.00;99.90;;;;;;5039860;28;20127;-69
2021/06/13 09:11:32;;;;;;;3.03;1.58;;;18.30;99.90;;;;;;5042936;28;20029;-71
2021/06/13 09:14:12;;;;;;;5.30;1.65;;;18.20;99.90;;;;;;5025651;28;20026;-67
2021/06/13 09:16:43;;;;;;;7.45;1.90;;;18.20;99.90;;;;;;5027799;28;20089;-72
2021/06/13 09:19:09;;;;;;;1.63;0.80;;;18.20;99.90;;;;;;5027094;28;20030;-70
2021/06/13 09:21:36;;;;;;;3.83;1.65;;;18.20;99.90;;;;;;5043016;28;20034;-72
2021/06/13 09:24:24;;;;;;;2.17;0.93;;;18.40;99.90;;;;;;5027831;28;20445;-70
2021/06/13 09:26:55;;;;;;;1.70;1.05;;;18.70;99.90;;;;;;5027701;28;20042;-70
2021/06/13 09:29:21;;;;;;;3.80;1.98;;;18.80;99.90;;;;;;5027631;28;20092;-72
2021/06/13 09:32:07;;;;;;;4.57;1.15;;;19.00;99.90;;;;;;5036074;28;20026;-73
2021/06/13 09:34:33;;;;;;;11.80;1.55;;;19.00;99.90;;;;;;5031710;28;20053;-71
2021/06/13 09:37:04;;;;;;;4.78;1.25;;;18.70;99.90;;;;;;5025973;28;20038;-72
2021/06/13 09:39:29;;;;;;;2.03;1.63;;;18.70;99.90;;;;;;5038734;28;20055;-70
2021/06/13 09:41:55;;;;;;;1.98;1.00;;;18.80;99.90;;;;;;5063353;28;20045;-71
2021/06/13 09:44:21;;;;;;;6.78;1.85;;;19.10;99.90;;;;;;5047715;28;20025;-72
2021/06/13 09:46:52;;;;;;;2.67;0.95;;;19.30;99.90;;;;;;5032042;28;20045;-73
2021/06/13 09:49:20;;;;;;;5.28;1.67;;;19.20;99.90;;;;;;5040899;28;20035;-74
2021/06/13 09:51:49;;;;;;;8.88;1.73;;;19.30;99.90;;;;;;5042655;28;20048;-71
2021/06/13 09:54:22;;;;;;;1.98;0.98;;;19.40;99.90;;;;;;5047295;28;20567;-70
2021/06/13 09:56:48;;;;;;;6.93;1.58;;;19.60;99.90;;;;;;5039673;28;20026;-73
2021/06/13 09:59:15;;;;;;;3.92;1.55;;;19.70;99.90;;;;;;5027082;28;20030;-73
2021/06/13 10:01:48;;;;;;;2.10;1.13;;;19.50;99.90;;;;;;5027653;28;20030;-71
2021/06/13 10:04:20;;;;;;;5.13;1.00;;;19.50;99.90;;;;;;5026240;28;20026;-72
2021/06/13 10:06:52;;;;;;;8.98;1.17;;;19.50;99.90;;;;;;5026739;28;20423;-75
2021/06/13 10:09:20;;;;;;;4.55;1.00;;;19.50;99.90;;;;;;5027293;28;20041;-71
2021/06/13 10:11:50;;;;;;;4.47;1.70;;;19.60;99.90;;;;;;5041940;28;20379;-72
2021/06/13 10:14:18;;;;;;;3.75;1.02;;;19.80;99.90;;;;;;5046461;28;20391;-71
2021/06/13 10:16:51;;;;;;;1.85;1.08;;;19.90;99.90;;;;;;5047062;28;20032;-72
2021/06/13 10:19:22;;;;;;;3.35;1.65;;;20.10;99.90;;;;;;5047009;28;20052;-72
2021/06/13 10:21:49;;;;;;;4.82;1.92;;;20.20;99.90;;;;;;5036471;28;20030;-70
2021/06/13 10:24:18;;;;;;;1.77;1.33;;;20.30;99.90;;;;;;5026238;28;20482;-73
2021/06/13 10:26:48;;;;;;;4.55;1.60;;;20.40;99.90;;;;;;5031861;28;20417;-71
2021/06/13 10:29:14;;;;;;;4.45;1.63;;;20.50;99.90;;;;;;5050711;28;20021;-72
2021/06/13 10:31:41;;;;;;;7.85;1.75;;;20.60;99.90;;;;;;5038087;28;20085;-72
2021/06/13 10:34:07;;;;;;;2.33;1.42;;;20.80;99.90;;;;;;5036216;28;20052;-68
2021/06/13 10:36:35;;;;;;;2.35;1.33;;;20.90;99.90;;;;;;5033776;28;20021;-70
2021/06/13 10:39:03;;;;;;;3.53;1.83;;;20.90;99.90;;;;;;5029248;28;20060;-71
2021/06/13 10:41:29;;;;;;;2.75;1.05;;;21.10;99.90;;;;;;5042528;28;20505;-71
2021/06/13 10:44:12;;;;;;;3.75;1.45;;;21.20;99.90;;;;;;5045721;28;20037;-71
2021/06/13 10:46:42;;;;;;;5.45;1.60;;;21.30;99.90;;;;;;5046675;28;20092;-71
2021/06/13 10:49:27;;;;;;;5.32;1.52;;;21.20;99.90;;;;;;5045982;28;20026;-73
2021/06/13 10:52:08;;;;;;;3.05;1.45;;;20.90;99.90;;;;;;5025833;28;20068;-70
2021/06/13 10:54:54;;;;;;;1.35;0.80;;;21.00;99.90;;;;;;5040927;28;20488;-70
2021/06/13 10:57:19;;;;;;;2.38;1.50;;;21.20;99.90;;;;;;5025565;28;20034;-70
2021/06/13 10:59:56;;;;;;;2.00;1.05;;;21.30;99.90;;;;;;5025316;28;20096;-70
2021/06/13 11:02:23;;;;;;;4.28;1.27;;;21.40;99.90;;;;;;5024770;28;20041;-70
2021/06/13 11:05:01;;;;;;;3.38;1.48;;;21.50;99.90;;;;;;5025255;28;20463;-72
2021/06/13 11:07:34;;;;;;;2.45;1.25;;;21.30;99.90;;;;;;5025264;28;20407;-70
2021/06/13 11:10:08;;;;;;;9.48;1.52;;;21.10;99.90;;;;;;5026445;28;20030;-70
2021/06/13 11:12:56;;;;;;;2.47;1.63;;;21.00;99.90;;;;;;5023827;28;20156;-74
2021/06/13 11:15:22;;;;;;;1.27;1.02;;;21.30;99.90;;;;;;5024972;28;20037;-72
2021/06/13 11:18:08;;;;;;;2.83;1.45;;;21.60;99.90;;;;;;5026700;28;20156;-69
2021/06/13 11:23:15;;;;;;;2.72;1.30;;;21.90;99.90;;;;;;5024899;28;20116;-73
2021/06/13 11:25:42;;;;;;;6.00;1.55;;;21.90;99.90;;;;;;5024353;28;20089;-69
2021/06/13 11:28:25;;;;;;;3.40;1.73;;;22.20;99.90;;;;;;5033818;28;20098;-71
2021/06/13 11:30:53;;;;;;;6.55;1.65;;;22.40;99.90;;;;;;5042869;28;20212;-71
2021/06/13 11:33:40;;;;;;;3.03;1.65;;;22.70;99.90;;;;;;5038541;28;20092;-70
2021/06/13 11:36:20;;;;;;;3.33;1.58;;;22.70;99.90;;;;;;5042746;28;20068;-72
2021/06/13 11:38:51;;;;;;;3.35;1.17;;;22.80;99.90;;;;;;5042880;28;20030;-70
2021/06/13 11:41:27;;;;;;;2.83;1.40;;;22.70;99.90;;;;;;5042881;28;20017;-70
2021/06/13 11:43:54;;;;;;;1.98;1.33;;;22.70;99.90;;;;;;5042921;28;20033;-70
2021/06/13 11:46:38;;;;;;;5.22;1.65;;;23.00;99.90;;;;;;5195954;22;20115;-70
2021/06/13 11:49:10;;;;;;;;;;;23.50;99.90;;;;;;5057824;28;20134;-70
2021/06/13 11:52:05;;;;;;;2.17;1.02;;;23.60;99.90;;;;;;5062322;28;19955;-69
2021/06/13 11:54:33;;;;;;;3.20;1.30;;;23.70;99.90;;;;;;5062153;28;20044;-71
2021/06/13 11:57:04;;;;;;;1.27;1.15;;;23.60;99.90;;;;;;5063003;28;20049;-72
2021/06/13 11:59:29;;;;;;;8.18;1.52;;;23.20;99.90;;;;;;5064234;28;20032;-72
2021/06/13 12:02:00;;;;;;;2.25;1.10;;;23.20;99.90;;;;;;5063746;28;20067;-72
2021/06/13 12:04:28;;;;;;;2.08;1.05;;;23.20;99.90;;;;;;5063969;28;20496;-71
2021/06/13 12:06:55;;;;;;;5.18;1.48;;;23.60;99.90;;;;;;5062839;28;20029;-73
2021/06/13 12:09:23;;;;;;;3.92;1.50;;;24.00;99.90;;;;;;5063703;28;20044;-74
2021/06/13 12:11:56;;;;;;;4.28;1.17;;;24.30;99.90;;;;;;5062026;28;20084;-72
2021/06/13 12:14:39;;;;;;;3.35;1.17;;;24.10;99.90;;;;;;5055255;28;20033;-69
2021/06/13 12:17:10;;;;;;;2.08;0.98;;;23.90;99.90;;;;;;5060320;28;20039;-70
2021/06/13 12:20:01;;;;;;;1.38;0.90;;;23.40;99.90;;;;;;5061768;28;20037;-70
2021/06/13 12:22:49;;;;;;;1.75;1.30;;;23.20;99.90;;;;;;5060897;28;20025;-72
2021/06/13 12:28:07;;;;;;;3.80;1.35;;;24.00;99.90;;;;;;5055982;28;20052;-69
2021/06/13 12:30:34;;;;;;;5.35;1.20;;;23.80;99.90;;;;;;5060099;28;20542;-70
2021/06/13 12:33:07;;;;;;;5.20;0.93;;;23.80;99.90;;;;;;5048255;28;20461;-71
2021/06/13 12:35:41;;;;;;;2.53;1.17;;;23.90;99.90;;;;;;5062098;28;20115;-72
2021/06/13 12:38:09;;;;;;;;;;;23.70;99.90;;;;;;5064251;28;20036;-70
2021/06/13 12:40:41;;;;;;;3.50;1.83;;;23.40;99.90;;;;;;5043472;28;19912;-71
2021/06/13 12:43:09;;;;;;;2.58;1.27;;;23.30;99.90;;;;;;5043679;28;20077;-68
2021/06/13 12:45:37;;;;;;;3.55;1.38;;;23.20;99.90;;;;;;5050135;28;20115;-71
2021/06/13 12:48:06;;;;;;;3.42;1.30;;;23.20;99.90;;;;;;5062516;28;20053;-69
2021/06/13 12:50:38;;;;;;;1.55;1.08;;;23.40;99.90;;;;;;5057247;28;20495;-72
2021/06/13 12:53:06;;;;;;;5.15;1.60;;;23.70;99.90;;;;;;5047657;28;20026;-72
2021/06/13 12:55:40;;;;;;;2.35;1.20;;;24.20;99.90;;;;;;5047482;28;20117;-70
2021/06/13 12:58:12;;;;;;;1.88;1.13;;;24.30;99.90;;;;;;5047899;28;20132;-69
2021/06/13 13:00:38;;;;;;;2.15;1.48;;;24.40;99.90;;;;;;5047332;28;20112;-69